sensor_id;sensor_type;location;lat;lon;timestamp;P1;durP1;ratioP1;P2;durP2;ratioP2
6642;SDS011;3357;48.050;7.800;2023-11-19T00:02:18;1.80;;;0.83;;
6642;SDS011;3357;48.050;7.800;2023-11-19T00:04:44;0.80;;;0.80;;
6642;SDS011;3357;48.050;7.800;2023-11-19T00:07:09;1.37;;;0.87;;
6642;SDS011;3357;48.050;7.800;2023-11-19T00:09:35;5.30;;;0.80;;
6642;SDS011;3357;48.050;7.800;2023-11-19T00:12:02;1.27;;;1.00;;
6642;SDS011;3357;48.050;7.800;2023-11-19T00:14:31;1.47;;;1.03;;
6642;SDS011;3357;48.050;7.800;2023-11-19T00:16:56;1.40;;;0.97;;
6642;SDS011;3357;48.050;7.800;2023-11-19T00:19:22;1.00;;;1.00;;
6642;SDS011;3357;48.050;7.800;2023-11-19T00:21:47;1.83;;;0.90;;
6642;SDS011;3357;48.050;7.800;2023-11-19T00:24:12;4.70;;;1.70;;
6642;SDS011;3357;48.050;7.800;2023-11-19T00:26:40;1.40;;;1.10;;
6642;SDS011;3357;48.050;7.800;2023-11-19T00:29:06;2.20;;;0.93;;
6642;SDS011;3357;48.050;7.800;2023-11-19T00:31:32;1.80;;;1.07;;
6642;SDS011;3357;48.050;7.800;2023-11-19T00:33:57;0.80;;;0.80;;
6642;SDS011;3357;48.050;7.800;2023-11-19T00:36:22;1.40;;;1.30;;
6642;SDS011;3357;48.050;7.800;2023-11-19T00:38:49;1.80;;;1.37;;
6642;SDS011;3357;48.050;7.800;2023-11-19T00:41:14;1.17;;;1.00;;
6642;SDS011;3357;48.050;7.800;2023-11-19T00:43:41;5.93;;;0.90;;
6642;SDS011;3357;48.050;7.800;2023-11-19T00:46:07;0.87;;;0.87;;
6642;SDS011;3357;48.050;7.800;2023-11-19T00:48:32;1.73;;;0.90;;
6642;SDS011;3357;48.050;7.800;2023-11-19T00:50:57;1.00;;;1.00;;
6642;SDS011;3357;48.050;7.800;2023-11-19T00:53:22;1.10;;;1.00;;
6642;SDS011;3357;48.050;7.800;2023-11-19T00:55:48;0.90;;;0.90;;
6642;SDS011;3357;48.050;7.800;2023-11-19T00:58:13;1.03;;;0.93;;
6642;SDS011;3357;48.050;7.800;2023-11-19T01:00:38;1.43;;;0.87;;
6642;SDS011;3357;48.050;7.800;2023-11-19T01:03:04;0.93;;;0.70;;
6642;SDS011;3357;48.050;7.800;2023-11-19T01:05:32;0.87;;;0.70;;
6642;SDS011;3357;48.050;7.800;2023-11-19T01:07:57;0.90;;;0.60;;
6642;SDS011;3357;48.050;7.800;2023-11-19T01:10:22;0.70;;;0.70;;
6642;SDS011;3357;48.050;7.800;2023-11-19T01:12:48;0.60;;;0.60;;
6642;SDS011;3357;48.050;7.800;2023-11-19T01:15:13;0.70;;;0.70;;
6642;SDS011;3357;48.050;7.800;2023-11-19T01:17:38;2.10;;;0.70;;
6642;SDS011;3357;48.050;7.800;2023-11-19T01:20:04;0.70;;;0.70;;
6642;SDS011;3357;48.050;7.800;2023-11-19T01:22:31;1.93;;;0.80;;
6642;SDS011;3357;48.050;7.800;2023-11-19T01:24:56;2.50;;;0.70;;
6642;SDS011;3357;48.050;7.800;2023-11-19T01:27:23;1.00;;;0.60;;
6642;SDS011;3357;48.050;7.800;2023-11-19T01:29:49;2.30;;;0.70;;
6642;SDS011;3357;48.050;7.800;2023-11-19T01:32:15;0.70;;;0.70;;
6642;SDS011;3357;48.050;7.800;2023-11-19T01:34:40;0.70;;;0.70;;
6642;SDS011;3357;48.050;7.800;2023-11-19T01:37:06;0.50;;;0.50;;
6642;SDS011;3357;48.050;7.800;2023-11-19T01:39:31;3.67;;;0.70;;
6642;SDS011;3357;48.050;7.800;2023-11-19T01:41:56;1.10;;;0.67;;
6642;SDS011;3357;48.050;7.800;2023-11-19T01:44:21;2.93;;;0.97;;
6642;SDS011;3357;48.050;7.800;2023-11-19T01:46:47;0.80;;;0.60;;
6642;SDS011;3357;48.050;7.800;2023-11-19T01:49:14;1.57;;;0.87;;
6642;SDS011;3357;48.050;7.800;2023-11-19T01:51:39;0.80;;;0.80;;
6642;SDS011;3357;48.050;7.800;2023-11-19T01:54:05;0.93;;;0.80;;
6642;SDS011;3357;48.050;7.800;2023-11-19T01:56:31;2.40;;;1.00;;
6642;SDS011;3357;48.050;7.800;2023-11-19T01:58:56;2.07;;;0.70;;
6642;SDS011;3357;48.050;7.800;2023-11-19T02:01:22;2.00;;;1.20;;
6642;SDS011;3357;48.050;7.800;2023-11-19T02:03:48;2.10;;;0.63;;
6642;SDS011;3357;48.050;7.800;2023-11-19T02:06:14;2.43;;;1.00;;
6642;SDS011;3357;48.050;7.800;2023-11-19T02:08:40;0.87;;;0.80;;
6642;SDS011;3357;48.050;7.800;2023-11-19T02:11:05;0.80;;;0.80;;
6642;SDS011;3357;48.050;7.800;2023-11-19T02:13:32;1.73;;;0.90;;
6642;SDS011;3357;48.050;7.800;2023-11-19T02:15:57;1.00;;;0.90;;
6642;SDS011;3357;48.050;7.800;2023-11-19T02:18:25;1.80;;;0.87;;
6642;SDS011;3357;48.050;7.800;2023-11-19T02:20:56;1.43;;;0.80;;
6642;SDS011;3357;48.050;7.800;2023-11-19T02:23:22;3.00;;;0.83;;
6642;SDS011;3357;48.050;7.800;2023-11-19T02:25:58;2.77;;;0.80;;
6642;SDS011;3357;48.050;7.800;2023-11-19T02:28:27;0.73;;;0.73;;
6642;SDS011;3357;48.050;7.800;2023-11-19T02:30:52;0.60;;;0.60;;
6642;SDS011;3357;48.050;7.800;2023-11-19T02:33:18;0.60;;;0.60;;
6642;SDS011;3357;48.050;7.800;2023-11-19T02:35:43;1.67;;;0.80;;
6642;SDS011;3357;48.050;7.800;2023-11-19T02:38:08;1.03;;;0.87;;
6642;SDS011;3357;48.050;7.800;2023-11-19T02:40:34;1.90;;;0.90;;
6642;SDS011;3357;48.050;7.800;2023-11-19T02:42:59;0.80;;;0.80;;
6642;SDS011;3357;48.050;7.800;2023-11-19T02:45:24;1.37;;;0.90;;
6642;SDS011;3357;48.050;7.800;2023-11-19T02:47:53;1.33;;;0.97;;
6642;SDS011;3357;48.050;7.800;2023-11-19T02:50:20;0.70;;;0.70;;
6642;SDS011;3357;48.050;7.800;2023-11-19T02:52:50;0.97;;;0.80;;
6642;SDS011;3357;48.050;7.800;2023-11-19T02:55:16;0.77;;;0.77;;
6642;SDS011;3357;48.050;7.800;2023-11-19T02:57:43;4.73;;;0.80;;
6642;SDS011;3357;48.050;7.800;2023-11-19T03:00:19;4.47;;;0.93;;
6642;SDS011;3357;48.050;7.800;2023-11-19T03:03:00;2.37;;;1.00;;
6642;SDS011;3357;48.050;7.800;2023-11-19T03:05:34;1.80;;;1.00;;
6642;SDS011;3357;48.050;7.800;2023-11-19T03:08:00;1.40;;;0.77;;
6642;SDS011;3357;48.050;7.800;2023-11-19T03:10:25;2.10;;;0.83;;
6642;SDS011;3357;48.050;7.800;2023-11-19T03:12:50;0.90;;;0.90;;
6642;SDS011;3357;48.050;7.800;2023-11-19T03:15:16;1.10;;;1.00;;
6642;SDS011;3357;48.050;7.800;2023-11-19T03:17:41;2.50;;;0.87;;
6642;SDS011;3357;48.050;7.800;2023-11-19T03:20:11;2.00;;;1.10;;
6642;SDS011;3357;48.050;7.800;2023-11-19T03:22:40;1.47;;;0.70;;
6642;SDS011;3357;48.050;7.800;2023-11-19T03:25:06;1.37;;;0.60;;
6642;SDS011;3357;48.050;7.800;2023-11-19T03:27:33;3.13;;;0.77;;
6642;SDS011;3357;48.050;7.800;2023-11-19T03:30:03;1.07;;;0.80;;
6642;SDS011;3357;48.050;7.800;2023-11-19T03:32:31;2.60;;;0.80;;
6642;SDS011;3357;48.050;7.800;2023-11-19T03:34:57;3.63;;;0.90;;
6642;SDS011;3357;48.050;7.800;2023-11-19T03:37:23;3.73;;;0.70;;
6642;SDS011;3357;48.050;7.800;2023-11-19T03:39:48;1.57;;;0.70;;
6642;SDS011;3357;48.050;7.800;2023-11-19T03:42:14;1.03;;;0.80;;
6642;SDS011;3357;48.050;7.800;2023-11-19T03:44:39;0.60;;;0.60;;
6642;SDS011;3357;48.050;7.800;2023-11-19T03:47:05;3.03;;;0.70;;
6642;SDS011;3357;48.050;7.800;2023-11-19T03:49:30;0.70;;;0.70;;
6642;SDS011;3357;48.050;7.800;2023-11-19T03:51:56;0.70;;;0.70;;
6642;SDS011;3357;48.050;7.800;2023-11-19T03:54:21;2.20;;;0.70;;
6642;SDS011;3357;48.050;7.800;2023-11-19T03:56:48;1.00;;;0.63;;
6642;SDS011;3357;48.050;7.800;2023-11-19T03:59:13;1.00;;;0.63;;
6642;SDS011;3357;48.050;7.800;2023-11-19T04:01:40;1.77;;;0.60;;
6642;SDS011;3357;48.050;7.800;2023-11-19T04:04:05;0.60;;;0.60;;
6642;SDS011;3357;48.050;7.800;2023-11-19T04:06:31;0.70;;;0.70;;
6642;SDS011;3357;48.050;7.800;2023-11-19T04:08:56;1.73;;;0.73;;
6642;SDS011;3357;48.050;7.800;2023-11-19T04:11:21;0.60;;;0.60;;
6642;SDS011;3357;48.050;7.800;2023-11-19T04:13:47;4.93;;;0.73;;
6642;SDS011;3357;48.050;7.800;2023-11-19T04:16:12;3.80;;;1.13;;
6642;SDS011;3357;48.050;7.800;2023-11-19T04:18:37;0.70;;;0.70;;
6642;SDS011;3357;48.050;7.800;2023-11-19T04:21:05;0.60;;;0.60;;
6642;SDS011;3357;48.050;7.800;2023-11-19T04:23:31;0.50;;;0.50;;
6642;SDS011;3357;48.050;7.800;2023-11-19T04:25:56;0.97;;;0.60;;
6642;SDS011;3357;48.050;7.800;2023-11-19T04:28:21;1.20;;;0.90;;
6642;SDS011;3357;48.050;7.800;2023-11-19T04:30:47;0.50;;;0.50;;
6642;SDS011;3357;48.050;7.800;2023-11-19T04:33:12;0.70;;;0.70;;
6642;SDS011;3357;48.050;7.800;2023-11-19T04:35:37;0.70;;;0.57;;
6642;SDS011;3357;48.050;7.800;2023-11-19T04:38:03;1.77;;;0.67;;
6642;SDS011;3357;48.050;7.800;2023-11-19T04:40:28;0.60;;;0.60;;
6642;SDS011;3357;48.050;7.800;2023-11-19T04:42:53;0.50;;;0.50;;
6642;SDS011;3357;48.050;7.800;2023-11-19T04:45:19;0.50;;;0.50;;
6642;SDS011;3357;48.050;7.800;2023-11-19T04:47:45;0.50;;;0.50;;
6642;SDS011;3357;48.050;7.800;2023-11-19T04:50:10;0.50;;;0.50;;
6642;SDS011;3357;48.050;7.800;2023-11-19T04:52:38;0.80;;;0.50;;
6642;SDS011;3357;48.050;7.800;2023-11-19T04:55:10;0.40;;;0.40;;
6642;SDS011;3357;48.050;7.800;2023-11-19T04:57:37;0.43;;;0.40;;
6642;SDS011;3357;48.050;7.800;2023-11-19T05:00:02;0.50;;;0.40;;
6642;SDS011;3357;48.050;7.800;2023-11-19T05:02:30;1.13;;;0.40;;
6642;SDS011;3357;48.050;7.800;2023-11-19T05:04:56;0.30;;;0.30;;
6642;SDS011;3357;48.050;7.800;2023-11-19T05:07:21;0.40;;;0.40;;
6642;SDS011;3357;48.050;7.800;2023-11-19T05:09:47;0.57;;;0.50;;
6642;SDS011;3357;48.050;7.800;2023-11-19T05:12:12;0.40;;;0.40;;
6642;SDS011;3357;48.050;7.800;2023-11-19T05:14:38;0.40;;;0.40;;
6642;SDS011;3357;48.050;7.800;2023-11-19T05:17:03;0.40;;;0.40;;
6642;SDS011;3357;48.050;7.800;2023-11-19T05:19:29;0.33;;;0.33;;
6642;SDS011;3357;48.050;7.800;2023-11-19T05:21:54;0.50;;;0.50;;
6642;SDS011;3357;48.050;7.800;2023-11-19T05:24:19;0.57;;;0.50;;
6642;SDS011;3357;48.050;7.800;2023-11-19T05:26:45;0.30;;;0.30;;
6642;SDS011;3357;48.050;7.800;2023-11-19T05:29:10;0.40;;;0.40;;
6642;SDS011;3357;48.050;7.800;2023-11-19T05:31:35;0.40;;;0.40;;
6642;SDS011;3357;48.050;7.800;2023-11-19T05:34:00;0.40;;;0.40;;
6642;SDS011;3357;48.050;7.800;2023-11-19T05:36:26;0.30;;;0.30;;
6642;SDS011;3357;48.050;7.800;2023-11-19T05:38:53;0.40;;;0.40;;
6642;SDS011;3357;48.050;7.800;2023-11-19T05:41:19;3.30;;;0.40;;
6642;SDS011;3357;48.050;7.800;2023-11-19T05:43:44;0.57;;;0.40;;
6642;SDS011;3357;48.050;7.800;2023-11-19T05:46:09;0.40;;;0.40;;
6642;SDS011;3357;48.050;7.800;2023-11-19T05:48:35;0.30;;;0.30;;
6642;SDS011;3357;48.050;7.800;2023-11-19T05:51:00;0.50;;;0.50;;
6642;SDS011;3357;48.050;7.800;2023-11-19T05:53:25;0.40;;;0.40;;
6642;SDS011;3357;48.050;7.800;2023-11-19T05:55:50;0.40;;;0.40;;
6642;SDS011;3357;48.050;7.800;2023-11-19T05:58:23;1.03;;;0.40;;
6642;SDS011;3357;48.050;7.800;2023-11-19T06:00:50;0.40;;;0.40;;
6642;SDS011;3357;48.050;7.800;2023-11-19T06:03:16;0.40;;;0.40;;
6642;SDS011;3357;48.050;7.800;2023-11-19T06:05:41;0.47;;;0.33;;
6642;SDS011;3357;48.050;7.800;2023-11-19T06:08:09;0.30;;;0.30;;
6642;SDS011;3357;48.050;7.800;2023-11-19T06:10:34;0.53;;;0.53;;
6642;SDS011;3357;48.050;7.800;2023-11-19T06:13:00;0.30;;;0.30;;
6642;SDS011;3357;48.050;7.800;2023-11-19T06:15:29;0.40;;;0.40;;
6642;SDS011;3357;48.050;7.800;2023-11-19T06:17:55;0.60;;;0.40;;
6642;SDS011;3357;48.050;7.800;2023-11-19T06:20:20;0.40;;;0.40;;
6642;SDS011;3357;48.050;7.800;2023-11-19T06:22:45;0.50;;;0.40;;
6642;SDS011;3357;48.050;7.800;2023-11-19T06:25:11;0.30;;;0.30;;
6642;SDS011;3357;48.050;7.800;2023-11-19T06:27:39;0.83;;;0.30;;
6642;SDS011;3357;48.050;7.800;2023-11-19T06:30:05;0.50;;;0.40;;
6642;SDS011;3357;48.050;7.800;2023-11-19T06:32:31;0.43;;;0.40;;
6642;SDS011;3357;48.050;7.800;2023-11-19T06:34:57;0.40;;;0.40;;
6642;SDS011;3357;48.050;7.800;2023-11-19T06:37:22;0.40;;;0.40;;
6642;SDS011;3357;48.050;7.800;2023-11-19T06:39:48;0.97;;;0.40;;
6642;SDS011;3357;48.050;7.800;2023-11-19T06:42:13;0.80;;;0.50;;
6642;SDS011;3357;48.050;7.800;2023-11-19T06:44:39;0.50;;;0.50;;
6642;SDS011;3357;48.050;7.800;2023-11-19T06:47:04;0.37;;;0.37;;
6642;SDS011;3357;48.050;7.800;2023-11-19T06:49:30;0.50;;;0.40;;
6642;SDS011;3357;48.050;7.800;2023-11-19T06:51:55;1.53;;;0.50;;
6642;SDS011;3357;48.050;7.800;2023-11-19T06:54:20;0.40;;;0.40;;
6642;SDS011;3357;48.050;7.800;2023-11-19T06:56:46;0.60;;;0.40;;
6642;SDS011;3357;48.050;7.800;2023-11-19T06:59:11;0.40;;;0.40;;
6642;SDS011;3357;48.050;7.800;2023-11-19T07:01:36;0.60;;;0.40;;
6642;SDS011;3357;48.050;7.800;2023-11-19T07:04:02;0.37;;;0.37;;
6642;SDS011;3357;48.050;7.800;2023-11-19T07:06:34;0.70;;;0.50;;
6642;SDS011;3357;48.050;7.800;2023-11-19T07:08:59;0.50;;;0.50;;
6642;SDS011;3357;48.050;7.800;2023-11-19T07:11:25;0.97;;;0.40;;
6642;SDS011;3357;48.050;7.800;2023-11-19T07:13:50;0.30;;;0.30;;
6642;SDS011;3357;48.050;7.800;2023-11-19T07:16:15;2.30;;;0.50;;
6642;SDS011;3357;48.050;7.800;2023-11-19T07:18:40;0.33;;;0.33;;
6642;SDS011;3357;48.050;7.800;2023-11-19T07:21:08;0.53;;;0.40;;
6642;SDS011;3357;48.050;7.800;2023-11-19T07:23:35;0.40;;;0.40;;
6642;SDS011;3357;48.050;7.800;2023-11-19T07:26:00;0.40;;;0.40;;
6642;SDS011;3357;48.050;7.800;2023-11-19T07:28:26;0.90;;;0.40;;
6642;SDS011;3357;48.050;7.800;2023-11-19T07:30:53;0.40;;;0.40;;
6642;SDS011;3357;48.050;7.800;2023-11-19T07:33:21;2.10;;;0.40;;
6642;SDS011;3357;48.050;7.800;2023-11-19T07:35:46;2.33;;;0.50;;
6642;SDS011;3357;48.050;7.800;2023-11-19T07:38:11;0.50;;;0.50;;
6642;SDS011;3357;48.050;7.800;2023-11-19T07:40:36;0.50;;;0.50;;
6642;SDS011;3357;48.050;7.800;2023-11-19T07:43:02;0.67;;;0.50;;
6642;SDS011;3357;48.050;7.800;2023-11-19T07:45:27;5.80;;;0.50;;
6642;SDS011;3357;48.050;7.800;2023-11-19T07:47:52;0.40;;;0.40;;
6642;SDS011;3357;48.050;7.800;2023-11-19T07:50:17;0.40;;;0.30;;
6642;SDS011;3357;48.050;7.800;2023-11-19T07:52:45;0.40;;;0.40;;
6642;SDS011;3357;48.050;7.800;2023-11-19T07:55:10;0.40;;;0.40;;
6642;SDS011;3357;48.050;7.800;2023-11-19T07:57:35;0.70;;;0.50;;
6642;SDS011;3357;48.050;7.800;2023-11-19T08:00:01;0.50;;;0.40;;
6642;SDS011;3357;48.050;7.800;2023-11-19T08:02:28;0.43;;;0.40;;
6642;SDS011;3357;48.050;7.800;2023-11-19T08:04:53;0.40;;;0.40;;
6642;SDS011;3357;48.050;7.800;2023-11-19T08:07:20;0.40;;;0.40;;
6642;SDS011;3357;48.050;7.800;2023-11-19T08:09:45;0.70;;;0.70;;
6642;SDS011;3357;48.050;7.800;2023-11-19T08:12:11;0.87;;;0.87;;
6642;SDS011;3357;48.050;7.800;2023-11-19T08:14:36;3.90;;;0.50;;
6642;SDS011;3357;48.050;7.800;2023-11-19T08:17:02;1.27;;;0.50;;
6642;SDS011;3357;48.050;7.800;2023-11-19T08:19:27;0.50;;;0.50;;
6642;SDS011;3357;48.050;7.800;2023-11-19T08:21:53;2.50;;;0.40;;
6642;SDS011;3357;48.050;7.800;2023-11-19T08:24:18;2.30;;;0.50;;
6642;SDS011;3357;48.050;7.800;2023-11-19T08:26:44;0.80;;;0.50;;
6642;SDS011;3357;48.050;7.800;2023-11-19T08:29:09;0.47;;;0.47;;
6642;SDS011;3357;48.050;7.800;2023-11-19T08:31:34;0.60;;;0.50;;
6642;SDS011;3357;48.050;7.800;2023-11-19T08:34:00;0.63;;;0.63;;
6642;SDS011;3357;48.050;7.800;2023-11-19T08:36:26;1.03;;;0.50;;
6642;SDS011;3357;48.050;7.800;2023-11-19T08:38:52;0.40;;;0.40;;
6642;SDS011;3357;48.050;7.800;2023-11-19T08:41:18;0.80;;;0.50;;
6642;SDS011;3357;48.050;7.800;2023-11-19T08:43:44;0.50;;;0.50;;
6642;SDS011;3357;48.050;7.800;2023-11-19T08:46:10;0.60;;;0.60;;
6642;SDS011;3357;48.050;7.800;2023-11-19T08:48:36;0.50;;;0.50;;
6642;SDS011;3357;48.050;7.800;2023-11-19T08:51:01;2.77;;;0.70;;
6642;SDS011;3357;48.050;7.800;2023-11-19T08:53:26;0.43;;;0.43;;
6642;SDS011;3357;48.050;7.800;2023-11-19T08:55:51;0.40;;;0.40;;
6642;SDS011;3357;48.050;7.800;2023-11-19T08:58:17;0.57;;;0.57;;
6642;SDS011;3357;48.050;7.800;2023-11-19T09:00:43;0.60;;;0.50;;
6642;SDS011;3357;48.050;7.800;2023-11-19T09:03:08;1.37;;;0.50;;
6642;SDS011;3357;48.050;7.800;2023-11-19T09:05:34;0.47;;;0.47;;
6642;SDS011;3357;48.050;7.800;2023-11-19T09:07:59;1.17;;;0.60;;
6642;SDS011;3357;48.050;7.800;2023-11-19T09:10:24;3.13;;;0.67;;
6642;SDS011;3357;48.050;7.800;2023-11-19T09:12:50;1.47;;;0.67;;
6642;SDS011;3357;48.050;7.800;2023-11-19T09:15:15;0.90;;;0.60;;
6642;SDS011;3357;48.050;7.800;2023-11-19T09:17:40;0.83;;;0.70;;
6642;SDS011;3357;48.050;7.800;2023-11-19T09:20:06;0.70;;;0.60;;
6642;SDS011;3357;48.050;7.800;2023-11-19T09:22:32;0.50;;;0.50;;
6642;SDS011;3357;48.050;7.800;2023-11-19T09:24:57;0.40;;;0.40;;
6642;SDS011;3357;48.050;7.800;2023-11-19T09:27:25;0.77;;;0.60;;
6642;SDS011;3357;48.050;7.800;2023-11-19T09:29:50;1.60;;;0.63;;
6642;SDS011;3357;48.050;7.800;2023-11-19T09:32:21;0.80;;;0.50;;
6642;SDS011;3357;48.050;7.800;2023-11-19T09:34:47;1.47;;;0.50;;
6642;SDS011;3357;48.050;7.800;2023-11-19T09:37:12;0.73;;;0.50;;
6642;SDS011;3357;48.050;7.800;2023-11-19T09:39:37;1.70;;;0.67;;
6642;SDS011;3357;48.050;7.800;2023-11-19T09:42:03;0.40;;;0.40;;
6642;SDS011;3357;48.050;7.800;2023-11-19T09:44:28;0.50;;;0.50;;
6642;SDS011;3357;48.050;7.800;2023-11-19T09:46:54;0.50;;;0.50;;
6642;SDS011;3357;48.050;7.800;2023-11-19T09:49:21;0.50;;;0.50;;
6642;SDS011;3357;48.050;7.800;2023-11-19T09:51:48;1.37;;;0.50;;
6642;SDS011;3357;48.050;7.800;2023-11-19T09:54:14;3.23;;;0.70;;
6642;SDS011;3357;48.050;7.800;2023-11-19T09:56:39;0.60;;;0.60;;
6642;SDS011;3357;48.050;7.800;2023-11-19T09:59:05;2.60;;;0.80;;
6642;SDS011;3357;48.050;7.800;2023-11-19T10:01:30;1.50;;;1.40;;
6642;SDS011;3357;48.050;7.800;2023-11-19T10:03:57;5.00;;;1.40;;
6642;SDS011;3357;48.050;7.800;2023-11-19T10:06:22;2.33;;;1.90;;
6642;SDS011;3357;48.050;7.800;2023-11-19T10:08:48;3.57;;;2.87;;
6642;SDS011;3357;48.050;7.800;2023-11-19T10:11:13;9.60;;;4.70;;
6642;SDS011;3357;48.050;7.800;2023-11-19T10:13:40;0.97;;;0.97;;
6642;SDS011;3357;48.050;7.800;2023-11-19T10:16:12;2.33;;;1.73;;
6642;SDS011;3357;48.050;7.800;2023-11-19T10:18:37;2.97;;;1.53;;
6642;SDS011;3357;48.050;7.800;2023-11-19T10:21:07;1.03;;;0.90;;
6642;SDS011;3357;48.050;7.800;2023-11-19T10:23:52;4.80;;;1.87;;
6642;SDS011;3357;48.050;7.800;2023-11-19T10:26:25;0.80;;;0.80;;
6642;SDS011;3357;48.050;7.800;2023-11-19T10:28:54;0.80;;;0.80;;
6642;SDS011;3357;48.050;7.800;2023-11-19T10:31:20;1.00;;;0.70;;
6642;SDS011;3357;48.050;7.800;2023-11-19T10:33:50;0.67;;;0.50;;
6642;SDS011;3357;48.050;7.800;2023-11-19T10:36:16;0.57;;;0.50;;
6642;SDS011;3357;48.050;7.800;2023-11-19T10:38:50;1.80;;;0.60;;
6642;SDS011;3357;48.050;7.800;2023-11-19T10:41:26;0.70;;;0.60;;
6642;SDS011;3357;48.050;7.800;2023-11-19T10:43:52;4.53;;;0.60;;
6642;SDS011;3357;48.050;7.800;2023-11-19T10:46:17;1.63;;;0.43;;
6642;SDS011;3357;48.050;7.800;2023-11-19T10:48:46;0.50;;;0.50;;
6642;SDS011;3357;48.050;7.800;2023-11-19T10:51:11;1.07;;;0.57;;
6642;SDS011;3357;48.050;7.800;2023-11-19T10:53:39;0.50;;;0.50;;
6642;SDS011;3357;48.050;7.800;2023-11-19T10:56:06;1.47;;;0.50;;
6642;SDS011;3357;48.050;7.800;2023-11-19T10:58:35;0.60;;;0.50;;
6642;SDS011;3357;48.050;7.800;2023-11-19T11:01:07;1.77;;;0.60;;
6642;SDS011;3357;48.050;7.800;2023-11-19T11:03:40;0.60;;;0.50;;
6642;SDS011;3357;48.050;7.800;2023-11-19T11:06:05;0.50;;;0.50;;
6642;SDS011;3357;48.050;7.800;2023-11-19T11:08:31;0.50;;;0.50;;
6642;SDS011;3357;48.050;7.800;2023-11-19T11:10:57;1.67;;;1.10;;
6642;SDS011;3357;48.050;7.800;2023-11-19T11:13:23;0.50;;;0.50;;
6642;SDS011;3357;48.050;7.800;2023-11-19T11:15:49;0.67;;;0.40;;
6642;SDS011;3357;48.050;7.800;2023-11-19T11:18:15;0.87;;;0.53;;
6642;SDS011;3357;48.050;7.800;2023-11-19T11:20:42;0.70;;;0.70;;
6642;SDS011;3357;48.050;7.800;2023-11-19T11:26:03;0.57;;;0.40;;
6642;SDS011;3357;48.050;7.800;2023-11-19T11:28:41;1.47;;;0.50;;
6642;SDS011;3357;48.050;7.800;2023-11-19T11:39:33;6.67;;;0.50;;
6642;SDS011;3357;48.050;7.800;2023-11-19T11:45:16;0.50;;;0.50;;
6642;SDS011;3357;48.050;7.800;2023-11-19T11:56:08;1.53;;;0.70;;
6642;SDS011;3357;48.050;7.800;2023-11-19T11:58:17;0.57;;;0.53;;
6642;SDS011;3357;48.050;7.800;2023-11-19T12:00:43;1.13;;;0.70;;
6642;SDS011;3357;48.050;7.800;2023-11-19T12:03:08;1.30;;;0.83;;
6642;SDS011;3357;48.050;7.800;2023-11-19T12:05:43;0.73;;;0.60;;
6642;SDS011;3357;48.050;7.800;2023-11-19T12:08:10;1.10;;;0.83;;
6642;SDS011;3357;48.050;7.800;2023-11-19T12:10:46;0.60;;;0.60;;
6642;SDS011;3357;48.050;7.800;2023-11-19T12:13:19;3.50;;;0.90;;
6642;SDS011;3357;48.050;7.800;2023-11-19T12:16:08;1.07;;;0.77;;
6642;SDS011;3357;48.050;7.800;2023-11-19T12:18:32;1.33;;;0.67;;
6642;SDS011;3357;48.050;7.800;2023-11-19T12:20:58;0.60;;;0.50;;
6642;SDS011;3357;48.050;7.800;2023-11-19T12:23:30;1.00;;;0.67;;
6642;SDS011;3357;48.050;7.800;2023-11-19T12:25:56;0.60;;;0.60;;
6642;SDS011;3357;48.050;7.800;2023-11-19T12:28:24;0.60;;;0.60;;
6642;SDS011;3357;48.050;7.800;2023-11-19T12:30:51;0.70;;;0.70;;
6642;SDS011;3357;48.050;7.800;2023-11-19T12:33:18;2.70;;;0.60;;
6642;SDS011;3357;48.050;7.800;2023-11-19T12:35:45;1.10;;;0.60;;
6642;SDS011;3357;48.050;7.800;2023-11-19T12:38:21;1.13;;;0.73;;
6642;SDS011;3357;48.050;7.800;2023-11-19T12:41:10;0.60;;;0.60;;
6642;SDS011;3357;48.050;7.800;2023-11-19T12:43:38;0.50;;;0.50;;
6642;SDS011;3357;48.050;7.800;2023-11-19T12:46:16;0.87;;;0.70;;
6642;SDS011;3357;48.050;7.800;2023-11-19T12:48:43;1.70;;;0.70;;
6642;SDS011;3357;48.050;7.800;2023-11-19T12:51:08;1.10;;;0.60;;
6642;SDS011;3357;48.050;7.800;2023-11-19T12:53:46;0.70;;;0.70;;
6642;SDS011;3357;48.050;7.800;2023-11-19T12:56:13;1.83;;;0.70;;
6642;SDS011;3357;48.050;7.800;2023-11-19T12:58:39;0.90;;;0.60;;
6642;SDS011;3357;48.050;7.800;2023-11-19T13:01:06;0.63;;;0.63;;
6642;SDS011;3357;48.050;7.800;2023-11-19T13:03:32;0.67;;;0.67;;
6642;SDS011;3357;48.050;7.800;2023-11-19T13:06:05;2.13;;;0.80;;
6642;SDS011;3357;48.050;7.800;2023-11-19T13:08:36;1.27;;;0.80;;
6642;SDS011;3357;48.050;7.800;2023-11-19T13:11:04;1.73;;;0.77;;
6642;SDS011;3357;48.050;7.800;2023-11-19T13:13:31;1.60;;;0.60;;
6642;SDS011;3357;48.050;7.800;2023-11-19T13:16:03;7.57;;;0.80;;
6642;SDS011;3357;48.050;7.800;2023-11-19T13:18:33;0.60;;;0.60;;
6642;SDS011;3357;48.050;7.800;2023-11-19T13:20:59;1.97;;;0.83;;
6642;SDS011;3357;48.050;7.800;2023-11-19T13:23:25;0.80;;;0.80;;
6642;SDS011;3357;48.050;7.800;2023-11-19T13:25:50;3.80;;;0.90;;
6642;SDS011;3357;48.050;7.800;2023-11-19T13:28:15;3.33;;;0.90;;
6642;SDS011;3357;48.050;7.800;2023-11-19T13:30:40;0.63;;;0.63;;
6642;SDS011;3357;48.050;7.800;2023-11-19T13:33:06;3.03;;;0.70;;
6642;SDS011;3357;48.050;7.800;2023-11-19T13:35:31;0.60;;;0.60;;
6642;SDS011;3357;48.050;7.800;2023-11-19T13:37:56;0.60;;;0.60;;
6642;SDS011;3357;48.050;7.800;2023-11-19T13:40:21;0.70;;;0.70;;
6642;SDS011;3357;48.050;7.800;2023-11-19T13:42:49;0.80;;;0.80;;
6642;SDS011;3357;48.050;7.800;2023-11-19T13:45:14;1.33;;;0.80;;
6642;SDS011;3357;48.050;7.800;2023-11-19T13:47:41;4.17;;;0.90;;
6642;SDS011;3357;48.050;7.800;2023-11-19T13:50:11;0.70;;;0.70;;
6642;SDS011;3357;48.050;7.800;2023-11-19T13:52:38;1.33;;;0.60;;
6642;SDS011;3357;48.050;7.800;2023-11-19T13:55:04;0.60;;;0.60;;
6642;SDS011;3357;48.050;7.800;2023-11-19T13:57:34;1.40;;;0.80;;
6642;SDS011;3357;48.050;7.800;2023-11-19T14:00:01;0.80;;;0.67;;
6642;SDS011;3357;48.050;7.800;2023-11-19T14:02:30;3.40;;;0.93;;
6642;SDS011;3357;48.050;7.800;2023-11-19T14:04:55;0.93;;;0.70;;
6642;SDS011;3357;48.050;7.800;2023-11-19T14:07:21;2.30;;;1.43;;
6642;SDS011;3357;48.050;7.800;2023-11-19T14:09:46;0.70;;;0.70;;
6642;SDS011;3357;48.050;7.800;2023-11-19T14:12:11;1.23;;;0.87;;
6642;SDS011;3357;48.050;7.800;2023-11-19T14:14:38;0.77;;;0.77;;
6642;SDS011;3357;48.050;7.800;2023-11-19T14:17:04;1.03;;;0.70;;
6642;SDS011;3357;48.050;7.800;2023-11-19T14:19:30;2.30;;;0.67;;
6642;SDS011;3357;48.050;7.800;2023-11-19T14:21:55;0.90;;;0.60;;
6642;SDS011;3357;48.050;7.800;2023-11-19T14:24:20;2.57;;;0.83;;
6642;SDS011;3357;48.050;7.800;2023-11-19T14:26:46;2.50;;;0.70;;
6642;SDS011;3357;48.050;7.800;2023-11-19T14:29:16;2.33;;;0.60;;
6642;SDS011;3357;48.050;7.800;2023-11-19T14:31:41;0.90;;;0.77;;
6642;SDS011;3357;48.050;7.800;2023-11-19T14:34:06;1.00;;;0.70;;
6642;SDS011;3357;48.050;7.800;2023-11-19T14:36:32;0.83;;;0.83;;
6642;SDS011;3357;48.050;7.800;2023-11-19T14:38:57;0.70;;;0.70;;
6642;SDS011;3357;48.050;7.800;2023-11-19T14:41:23;1.13;;;0.70;;
6642;SDS011;3357;48.050;7.800;2023-11-19T14:43:49;0.70;;;0.70;;
6642;SDS011;3357;48.050;7.800;2023-11-19T14:46:14;3.47;;;0.73;;
6642;SDS011;3357;48.050;7.800;2023-11-19T14:48:39;0.60;;;0.60;;
6642;SDS011;3357;48.050;7.800;2023-11-19T14:51:05;1.37;;;0.70;;
6642;SDS011;3357;48.050;7.800;2023-11-19T14:53:30;1.50;;;0.80;;
6642;SDS011;3357;48.050;7.800;2023-11-19T14:55:55;0.70;;;0.63;;
6642;SDS011;3357;48.050;7.800;2023-11-19T14:58:21;2.30;;;0.80;;
6642;SDS011;3357;48.050;7.800;2023-11-19T15:00:46;5.13;;;0.90;;
6642;SDS011;3357;48.050;7.800;2023-11-19T15:03:12;0.80;;;0.80;;
6642;SDS011;3357;48.050;7.800;2023-11-19T15:05:38;0.80;;;0.70;;
6642;SDS011;3357;48.050;7.800;2023-11-19T15:08:04;1.93;;;0.80;;
6642;SDS011;3357;48.050;7.800;2023-11-19T15:10:29;1.50;;;0.90;;
6642;SDS011;3357;48.050;7.800;2023-11-19T15:12:54;1.77;;;1.00;;
6642;SDS011;3357;48.050;7.800;2023-11-19T15:15:20;1.43;;;0.70;;
6642;SDS011;3357;48.050;7.800;2023-11-19T15:17:45;1.93;;;0.80;;
6642;SDS011;3357;48.050;7.800;2023-11-19T15:20:10;1.50;;;0.83;;
6642;SDS011;3357;48.050;7.800;2023-11-19T15:22:38;0.90;;;0.70;;
6642;SDS011;3357;48.050;7.800;2023-11-19T15:25:04;3.13;;;0.80;;
6642;SDS011;3357;48.050;7.800;2023-11-19T15:27:32;1.70;;;0.90;;
6642;SDS011;3357;48.050;7.800;2023-11-19T15:29:58;2.20;;;1.03;;
6642;SDS011;3357;48.050;7.800;2023-11-19T15:32:23;0.97;;;0.70;;
6642;SDS011;3357;48.050;7.800;2023-11-19T15:34:49;1.60;;;0.63;;